Time;durP1;ratioP1;P1;durP2;ratioP2;P2;SDS_P1;SDS_P2;PMS_P1;PMS_P2;Temp;Humidity;BMP_temperature;BMP_pressure;BME280_temperature;BME280_humidity;BME280_pressure;Samples;Min_cycle;Max_cycle;Signal;HPM_P1;HPM_P2
2021/12/10 00:02:15;;;;;;;18.02;8.38;;;;;;;6.52;96.02;100982.22;10463004;28;20044;-73
2021/12/10 00:07:21;;;;;;;15.02;8.45;;;;;;;6.02;95.84;100918.59;10459184;28;20041;-72
2021/12/10 00:12:30;;;;;;;16.58;8.80;;;;;;;5.70;95.73;100905.31;10454177;28;20476;-73
2021/12/10 00:17:31;;;;;;;13.77;8.50;;;;;;;5.99;96.63;100979.50;10454374;28;20049;-74
2021/12/10 00:22:41;;;;;;;13.10;8.35;;;;;;;6.14;97.26;100998.53;10437158;28;20044;-73
2021/12/10 00:27:42;;;;;;;15.45;9.27;;;;;;;5.97;96.85;100960.31;10462269;28;20048;-73
2021/12/10 00:32:57;;;;;;;16.90;8.60;;;;;;;5.52;97.29;100901.50;10463031;28;20492;-73
2021/12/10 00:37:59;;;;;;;17.23;8.68;;;;;;;6.30;97.29;101021.88;10460572;28;20044;-73
2021/12/10 00:43:00;;;;;;;25.48;8.93;;;;;;;6.26;97.47;101021.28;10462003;28;20040;-73
2021/12/10 00:48:02;;;;;;;18.00;9.10;;;;;;;5.24;97.48;100866.81;10461938;28;20140;-73
2021/12/10 00:53:04;;;;;;;16.85;8.63;;;;;;;5.16;96.97;100869.22;10461301;28;20561;-73
2021/12/10 00:58:06;;;;;;;20.38;9.02;;;;;;;4.95;96.95;100856.75;10461565;28;20075;-73
2021/12/10 01:03:11;;;;;;;26.95;9.02;;;;;;;6.05;97.62;101030.91;10460928;28;20068;-73
2021/12/10 01:08:12;;;;;;;21.27;9.48;;;;;;;5.87;98.11;101012.09;10467989;28;20045;-73
2021/12/10 01:13:17;;;;;;;18.58;9.57;;;;;;;5.93;98.21;101027.44;10460652;28;20045;-73
2021/12/10 01:28:55;;;;;;;15.45;9.18;;;;;;;5.31;97.95;100943.56;10460735;28;20040;-73
2021/12/10 01:33:56;;;;;;;22.55;9.85;;;;;;;6.22;97.97;101061.22;10460135;28;20049;-73
2021/12/10 01:38:57;;;;;;;14.57;9.13;;;;;;;5.96;98.29;101021.94;10458124;28;20119;-73
2021/12/10 01:44:03;;;;;;;16.90;10.50;;;;;;;5.97;98.04;101004.31;10460459;28;20056;-73
2021/12/10 01:49:06;;;;;;;14.77;9.52;;;;;;;5.38;98.35;100892.06;10459760;28;20405;-74
2021/12/10 01:54:35;;;;;;;16.80;10.70;;;;;;;6.02;97.97;100995.06;10460279;28;20040;-73
2021/12/10 01:59:37;;;;;;;22.95;12.52;;;;;;;5.87;97.48;100985.72;10454619;28;20198;-73
2021/12/10 02:04:41;;;;;;;33.35;15.30;;;;;;;6.57;97.79;101080.34;10459864;28;20399;-73
2021/12/10 02:09:43;;;;;;;40.23;15.63;;;;;;;6.66;98.00;101076.13;10458585;28;20044;-73
2021/12/10 02:14:43;;;;;;;30.77;14.80;;;;;;;6.76;97.56;101078.84;10458582;28;20295;-73
2021/12/10 02:19:44;;;;;;;27.17;14.93;;;;;;;5.72;97.15;100913.94;10458379;28;20044;-73
2021/12/10 02:24:45;;;;;;;25.23;13.63;;;;;;;6.89;97.15;101111.22;10458656;28;20440;-73
2021/12/10 02:29:46;;;;;;;22.50;11.95;;;;;;;6.02;96.75;100959.94;10457488;28;20087;-73
2021/12/10 02:34:49;;;;;;;18.90;10.48;;;;;;;5.69;96.15;100908.94;10457036;28;20131;-73
2021/12/10 02:39:50;;;;;;;14.35;9.13;;;;;;;6.67;96.34;101091.00;10457193;28;20065;-73
2021/12/10 02:44:51;;;;;;;15.30;9.38;;;;;;;6.52;96.32;101071.97;10456860;28;20102;-73
2021/12/10 02:49:52;;;;;;;19.60;10.00;;;;;;;6.87;96.05;101126.34;10439248;28;20107;-73
2021/12/10 02:54:53;;;;;;;14.98;9.02;;;;;;;5.92;95.92;100973.84;10439545;28;20143;-73
2021/12/10 02:59:54;;;;;;;12.73;8.82;;;;;;;6.64;95.58;101091.22;10471935;28;20052;-73
2021/12/10 03:04:55;;;;;;;19.17;10.50;;;;;;;6.00;95.42;100983.78;10459146;28;20459;-73
2021/12/10 03:09:57;;;;;;;23.63;12.13;;;;;;;5.96;95.33;100994.72;10465295;28;20088;-73
2021/12/10 03:14:58;;;;;;;21.88;12.25;;;;;;;5.85;95.31;100975.28;10456263;28;20041;-73
2021/12/10 03:20:00;;;;;;;21.13;11.50;;;;;;;6.77;95.52;101136.81;10456060;28;20488;-73
2021/12/10 03:25:01;;;;;;;22.45;12.13;;;;;;;5.99;95.38;101010.31;10463542;28;20480;-73
2021/12/10 03:30:09;;;;;;;28.60;15.00;;;;;;;6.82;95.22;101147.84;10480981;28;20048;-74
2021/12/10 03:35:16;;;;;;;28.38;15.55;;;;;;;6.73;95.06;101138.03;10496779;28;20511;-73
2021/12/10 03:40:17;;;;;;;32.22;16.63;;;;;;;5.99;94.79;101012.94;10491525;28;20076;-73
2021/12/10 03:45:19;;;;;;;23.95;13.00;;;;;;;6.91;94.54;101167.41;10488785;28;20045;-74
2021/12/10 03:50:26;;;;;;;24.55;12.88;;;;;;;6.37;95.21;101091.66;10455520;28;20060;-73
2021/12/10 03:55:27;;;;;;;18.23;10.70;;;;;;;5.72;95.57;100987.75;10445069;28;20049;-71
2021/12/10 04:00:33;;;;;;;19.77;10.98;;;;;;;6.82;95.63;101171.63;10447767;28;20087;-73
2021/12/10 04:05:34;;;;;;;17.75;11.80;;;;;;;6.54;95.15;101109.63;10448694;28;20110;-74
2021/12/10 04:10:37;;;;;;;34.78;12.23;;;;;;;7.09;95.68;101197.63;10451896;28;20542;-78
2021/12/10 04:15:39;;;;;;;26.50;14.68;;;;;;;7.05;95.29;101184.75;10450863;28;20048;-81
2021/12/10 04:20:42;;;;;;;30.55;16.17;;;;;;;7.17;95.08;101207.53;10453475;28;20424;-73
2021/12/10 04:25:44;;;;;;;34.22;15.70;;;;;;;7.19;95.33;101215.38;10450314;28;20044;-78
2021/12/10 04:30:47;;;;;;;31.13;15.85;;;;;;;7.26;95.20;101235.03;10451905;28;20049;-72
2021/12/10 04:35:48;;;;;;;29.83;16.08;;;;;;;7.10;94.83;101195.81;10453608;28;20087;-73
2021/12/10 04:40:52;;;;;;;28.23;16.13;;;;;;;7.32;94.82;101226.59;10453427;28;20091;-79
2021/12/10 04:45:55;;;;;;;33.03;16.37;;;;;;;7.36;94.88;101224.53;10466254;28;20090;-74
2021/12/10 04:50:57;;;;;;;34.55;16.45;;;;;;;7.38;94.88;101235.84;10471907;28;20527;-72
2021/12/10 04:55:58;;;;;;;27.52;14.93;;;;;;;7.30;94.17;101216.16;10494032;28;20076;-73
2021/12/10 05:01:00;;;;;;;27.70;13.93;;;;;;;6.84;94.27;101151.19;10494301;28;20052;-73
2021/12/10 05:06:03;;;;;;;26.10;14.95;;;;;;;6.51;94.16;101082.63;10494996;28;20055;-73
2021/12/10 05:11:08;;;;;;;31.75;16.67;;;;;;;7.41;94.45;101231.13;10498211;28;20032;-73
2021/12/10 05:16:10;;;;;;;25.60;15.60;;;;;;;7.59;94.10;101246.44;10502356;28;20127;-73
2021/12/10 05:21:13;;;;;;;29.20;15.20;;;;;;;7.65;94.30;101249.44;10484208;28;20045;-73
2021/12/10 05:26:14;;;;;;;24.38;13.48;;;;;;;7.50;94.13;101211.88;10484018;28;20389;-73
2021/12/10 05:31:15;;;;;;;21.70;11.45;;;;;;;6.23;93.74;101010.97;10501184;28;20040;-73
2021/12/10 05:36:16;;;;;;;22.10;11.18;;;;;;;8.02;93.77;101262.25;10484235;28;20508;-73
2021/12/10 05:41:17;;;;;;;21.35;10.30;;;;;;;7.66;93.10;101170.94;10501852;28;20538;-73
2021/12/10 05:46:19;;;;;;;18.15;9.75;;;;;;;8.29;92.83;101245.00;10500893;28;20055;-72
2021/12/10 05:51:20;;;;;;;20.05;10.70;;;;;;;8.54;92.80;101252.53;10501012;28;20131;-72
2021/12/10 05:56:21;;;;;;;27.25;14.45;;;;;;;8.06;91.59;101104.88;10501229;28;20055;-72
2021/12/10 06:01:22;;;;;;;23.40;14.77;;;;;;;9.23;90.55;101245.63;10500548;28;20047;-73
2021/12/10 06:06:27;;;;;;;26.13;12.93;;;;;;;9.30;89.73;101236.16;10499016;28;20036;-73
2021/12/10 06:11:28;;;;;;;22.27;11.02;;;;;;;8.48;89.68;101123.31;10499791;28;20308;-73
2021/12/10 06:16:29;;;;;;;16.98;9.48;;;;;;;9.32;89.85;101260.72;10500517;28;20441;-73
2021/12/10 06:21:32;;;;;;;15.13;8.98;;;;;;;9.38;89.88;101241.59;10498561;28;20041;-73
2021/12/10 06:26:33;;;;;;;15.57;9.02;;;;;;;9.49;89.60;101238.81;10498888;28;20029;-72
2021/12/10 06:31:34;;;;;;;17.75;10.23;;;;;;;9.77;89.62;101274.28;10499266;28;20515;-72
2021/12/10 06:36:35;;;;;;;21.55;11.57;;;;;;;9.65;89.17;101232.13;10498985;28;20036;-72
2021/12/10 06:41:36;;;;;;;22.13;11.90;;;;;;;9.89;89.20;101292.72;10500012;28;20044;-72
2021/12/10 06:46:37;;;;;;;19.30;11.55;;;;;;;9.50;89.16;101243.16;10498809;28;20057;-72
2021/12/10 06:51:39;;;;;;;18.05;11.27;;;;;;;9.08;88.98;101178.94;10499198;28;20052;-72
2021/12/10 06:56:40;;;;;;;22.83;11.65;;;;;;;9.83;89.09;101310.03;10497199;28;20043;-73
2021/12/10 07:01:43;;;;;;;19.05;10.48;;;;;;;9.75;88.72;101272.75;10498183;28;20049;-72
2021/12/10 07:06:45;;;;;;;19.90;9.30;;;;;;;9.97;88.78;101298.19;10498105;28;20075;-72
2021/12/10 07:11:48;;;;;;;17.20;10.52;;;;;;;9.82;88.10;101255.31;10497590;28;20424;-72
2021/12/10 07:16:50;;;;;;;20.83;10.07;;;;;;;9.24;87.58;101114.75;10496393;28;20044;-72
2021/12/10 07:21:50;;;;;;;16.20;9.20;;;;;;;9.70;87.47;101176.84;10479004;28;20036;-72
2021/12/10 07:26:51;;;;;;;17.83;9.90;;;;;;;10.52;nan;101288.59;10497564;28;20504;-73
2021/12/10 07:31:53;;;;;;;14.48;8.23;;;;;;;10.45;86.42;101254.78;10496329;28;20133;-72
2021/12/10 07:36:54;;;;;;;12.25;6.90;;;;;;;10.90;85.46;101286.78;10496783;28;20044;-72
2021/12/10 07:41:54;;;;;;;14.13;7.63;;;;;;;11.01;84.55;101277.78;10478781;28;20419;-72
2021/12/10 07:46:56;;;;;;;15.38;7.03;;;;;;;11.14;84.79;101270.28;10496362;28;20049;-72
2021/12/10 07:51:58;;;;;;;15.45;6.82;;;;;;;11.01;84.15;101229.94;10496514;28;20515;-72
2021/12/10 07:56:59;;;;;;;17.58;6.28;;;;;;;10.82;83.27;101139.66;10495991;28;20051;-72
2021/12/10 08:02:00;;;;;;;16.00;6.78;;;;;;;11.46;83.40;101239.69;10495696;28;20082;-72
2021/12/10 08:07:01;;;;;;;17.00;7.35;;;;;;;11.50;82.52;101201.16;10495832;28;20466;-72
2021/12/10 08:12:02;;;;;;;13.05;7.35;;;;;;;11.91;81.38;101254.75;10496031;28;20036;-72
2021/12/10 08:17:04;;;;;;;10.52;4.55;;;;;;;12.07;80.14;101228.22;10495747;28;20078;-73
2021/12/10 08:22:06;;;;;;;11.43;5.60;;;;;;;11.51;79.06;101108.84;10477895;28;20132;-72
2021/12/10 08:27:08;;;;;;;9.02;5.28;;;;;;;12.14;78.46;101201.81;10495175;28;20051;-73
2021/12/10 08:32:12;;;;;;;8.60;5.15;;;;;;;12.36;78.15;101191.63;10495696;28;20060;-73
2021/12/10 08:37:14;;;;;;;9.30;4.75;;;;;;;12.01;77.38;101110.84;10495467;28;20487;-72
2021/12/10 08:42:15;;;;;;;9.93;4.72;;;;;;;12.67;76.69;101171.41;10495226;28;20055;-73
2021/12/10 08:47:16;;;;;;;8.30;5.05;;;;;;;12.97;75.99;101195.84;10500930;28;20148;-72
2021/12/10 08:52:19;;;;;;;8.45;4.72;;;;;;;13.14;75.79;101207.41;10486153;28;20135;-73
2021/12/10 08:57:19;;;;;;;13.00;4.70;;;;;;;13.21;74.34;101171.03;10485753;28;20051;-73
2021/12/10 09:02:21;;;;;;;10.05;4.43;;;;;;;13.69;72.97;101191.63;10503407;28;20059;-73
2021/12/10 09:07:22;;;;;;;10.07;4.57;;;;;;;13.83;71.28;101189.28;10484221;28;20488;-73
2021/12/10 09:12:26;;;;;;;7.90;4.25;;;;;;;14.24;71.03;101190.03;10502930;28;20117;-73
2021/12/10 09:17:30;;;;;;;8.02;4.18;;;;;;;14.33;68.45;101110.69;10502446;28;20051;-73
2021/12/10 09:22:31;;;;;;;6.07;3.35;;;;;;;14.58;67.91;101163.03;10501752;28;20047;-73
2021/12/10 09:27:32;;;;;;;14.13;4.15;;;;;;;14.59;67.75;101148.66;10501971;28;20415;-73
2021/12/10 09:32:33;;;;;;;7.65;3.25;;;;;;;14.37;67.08;101149.41;10501754;28;20132;-73
2021/12/10 09:37:36;;;;;;;10.43;2.92;;;;;;;13.64;66.31;101163.75;10483237;28;20048;-72
2021/12/10 09:42:37;;;;;;;7.20;3.00;;;;;;;12.95;68.90;101153.34;10502357;28;20443;-72
2021/12/10 09:47:38;;;;;;;7.85;3.20;;;;;;;12.47;69.98;101154.84;10501289;28;20117;-73
2021/12/10 09:52:39;;;;;;;5.70;3.45;;;;;;;12.44;71.00;101167.66;10501117;28;20490;-72
2021/12/10 09:57:42;;;;;;;6.55;3.58;;;;;;;12.39;70.43;101168.16;10499697;28;20139;-72
2021/12/10 10:02:44;;;;;;;6.05;3.28;;;;;;;12.41;70.38;101134.16;10500245;28;20524;-72
2021/12/10 10:07:51;;;;;;;7.55;3.20;;;;;;;11.76;70.19;100988.25;10482945;28;20032;-72
2021/12/10 10:12:55;;;;;;;8.40;3.97;;;;;;;12.66;69.70;101075.63;10500068;28;20047;-72
2021/12/10 10:18:00;;;;;;;6.40;3.43;;;;;;;13.42;67.76;101138.56;10499847;28;20040;-72
2021/12/10 10:23:02;;;;;;;9.48;3.33;;;;;;;13.21;67.59;101139.84;10481862;28;20673;-72
2021/12/10 10:28:05;;;;;;;6.18;3.38;;;;;;;12.68;67.86;101113.59;10499720;28;20044;-72
2021/12/10 10:33:09;;;;;;;7.23;3.77;;;;;;;12.94;68.33;101145.50;10499822;28;20167;-72
2021/12/10 10:38:12;;;;;;;6.90;4.07;;;;;;;12.23;67.91;101019.72;10498700;28;20098;-72
2021/12/10 10:43:13;;;;;;;9.05;4.78;;;;;;;12.99;67.91;101154.69;10498897;28;20036;-72
2021/12/10 10:48:16;;;;;;;9.13;4.72;;;;;;;12.86;67.96;101151.63;10481071;28;20056;-72
2021/12/10 10:53:20;;;;;;;31.70;6.05;;;;;;;12.54;69.29;101161.22;10498057;28;20098;-72
2021/12/10 10:58:25;;;;;;;11.02;4.18;;;;;;;12.19;70.22;101124.94;10498201;28;20048;-72
2021/12/10 11:03:43;;;;;;;6.68;4.00;;;;;;;12.27;70.57;101162.28;10480934;28;20127;-72
2021/12/10 11:08:50;;;;;;;11.52;4.40;;;;;;;11.95;71.56;101143.44;10498604;28;20041;-72
2021/12/10 11:14:11;;;;;;;18.73;9.98;;;;;;;12.02;72.40;101165.78;10479239;28;20037;-73
2021/12/10 11:19:18;;;;;;;34.33;17.15;;;;;;;12.07;72.89;101174.97;10496976;28;20045;-72
2021/12/10 11:24:23;;;;;;;17.95;9.00;;;;;;;12.25;72.42;101172.25;10497377;28;20071;-72
2021/12/10 11:29:38;;;;;;;10.57;5.20;;;;;;;12.27;71.82;101161.44;10497788;28;20036;-72
2021/12/10 11:34:54;;;;;;;13.02;6.00;;;;;;;12.33;71.27;101174.94;10496955;28;20068;-72
2021/12/10 11:39:55;;;;;;;10.38;5.18;;;;;;;12.47;71.02;101159.34;10496795;28;20071;-72
2021/12/10 11:45:18;;;;;;;8.52;5.13;;;;;;;12.40;69.65;101131.69;10496574;28;20159;-72
2021/12/10 11:50:22;;;;;;;8.30;4.75;;;;;;;12.40;68.80;101097.88;10497007;28;20052;-72
2021/12/10 11:55:23;;;;;;;8.40;4.40;;;;;;;13.00;68.41;101182.19;10496328;28;20442;-72
2021/12/10 12:00:29;;;;;;;11.80;5.13;;;;;;;12.83;68.21;101172.47;10467122;28;20068;-72
2021/12/10 12:05:35;;;;;;;9.00;5.28;;;;;;;12.78;68.16;101187.13;10468524;28;20037;-73
2021/12/10 12:10:40;;;;;;;9.35;5.78;;;;;;;12.32;69.10;101149.31;10485616;28;20037;-74
2021/12/10 12:15:45;;;;;;;13.68;5.40;;;;;;;12.40;70.35;101212.44;10489384;28;20190;-74
2021/12/10 12:20:49;;;;;;;7.38;5.15;;;;;;;12.18;71.24;101195.19;10488528;28;20086;-72
2021/12/10 12:25:52;;;;;;;9.20;4.87;;;;;;;11.94;70.82;101197.69;10487259;28;20044;-73
2021/12/10 12:31:03;;;;;;;9.95;4.30;;;;;;;11.54;71.32;101159.09;10465128;28;20037;-73
2021/12/10 12:36:12;;;;;;;7.15;4.60;;;;;;;11.76;71.12;101222.50;10490330;28;20047;-73
2021/12/10 12:41:19;;;;;;;11.88;4.97;;;;;;;11.09;71.72;101133.44;10488901;28;20043;-73
2021/12/10 12:46:20;;;;;;;10.20;4.75;;;;;;;11.27;72.03;101190.13;10489854;28;20040;-73
2021/12/10 12:51:22;;;;;;;12.65;5.40;;;;;;;10.40;72.42;101060.50;10494013;28;20041;-73
2021/12/10 12:56:27;;;;;;;9.50;5.30;;;;;;;10.13;72.41;101048.03;10491860;28;20086;-73
2021/12/10 13:01:35;;;;;;;10.35;5.57;;;;;;;10.78;73.23;101171.00;10494283;28;20044;-72
2021/12/10 13:06:54;;;;;;;13.82;6.00;;;;;;;10.86;73.72;101220.75;10474474;28;20492;-72
2021/12/10 13:12:11;;;;;;;36.42;6.80;;;;;;;10.62;74.22;101215.97;10486891;28;20044;-70
2021/12/10 13:17:31;;;;;;;83.72;9.35;;;;;;;10.68;75.23;101264.09;10495165;28;20048;-75
2021/12/10 13:22:33;;;;;;;24.65;7.43;;;;;;;10.41;76.09;101264.88;10472154;28;20029;-72
2021/12/10 13:27:36;;;;;;;30.40;6.70;;;;;;;9.09;76.55;101099.28;10488960;28;20435;-72
2021/12/10 13:32:41;;;;;;;50.40;9.25;;;;;;;9.46;77.46;101182.56;10495622;28;20502;-75
2021/12/10 13:37:42;;;;;;;;;;;;;;;9.93;77.44;101264.91;10501091;28;20745;-71
2021/12/10 13:42:45;;;;;;;51.55;9.95;;;;;;;9.30;78.21;101221.09;10490033;28;20507;-77
2021/12/10 13:47:52;;;;;;;39.10;8.18;;;;;;;8.53;78.85;101110.50;10475482;28;20473;-72
2021/12/10 13:53:11;;;;;;;38.83;9.40;;;;;;;8.66;79.91;101158.75;10493855;28;20036;-75
2021/12/10 13:58:39;;;;;;;46.17;11.88;;;;;;;9.14;80.29;101226.91;10495252;28;20028;-73
2021/12/10 14:03:54;;;;;;;46.28;10.52;;;;;;;7.84;80.79;101021.25;10494334;28;20044;-72
2021/12/10 14:09:42;;;;;;;39.97;8.85;;;;;;;9.38;81.59;101284.03;10487809;28;20044;-73
2021/12/10 14:14:56;;;;;;;44.40;10.50;;;;;;;8.74;80.20;101194.34;10492903;28;20040;-73
2021/12/10 14:20:09;;;;;;;29.50;8.73;;;;;;;9.28;80.37;101286.69;10480439;28;20044;-73
2021/12/10 14:25:17;;;;;;;25.92;7.70;;;;;;;9.02;80.77;101256.34;10476165;28;20075;-73
2021/12/10 14:30:24;;;;;;;37.60;7.57;;;;;;;8.33;81.56;101151.94;10493670;28;20040;-73
2021/12/10 14:35:26;;;;;;;33.03;8.25;;;;;;;9.14;81.55;101290.53;10481038;28;20041;-73
2021/12/10 14:40:32;;;;;;;57.17;9.65;;;;;;;9.13;82.35;101294.16;10498601;28;20377;-73
2021/12/10 14:45:34;;;;;;;61.10;10.80;;;;;;;9.01;82.40;101303.19;10497081;28;20101;-73
2021/12/10 14:50:35;;;;;;;32.10;9.68;;;;;;;8.17;82.86;101178.91;10498234;28;20057;-74
2021/12/10 14:55:40;;;;;;;39.72;9.23;;;;;;;8.66;82.72;101272.66;10498438;28;20044;-72
2021/12/10 15:00:46;;;;;;;33.35;9.68;;;;;;;8.83;82.95;101329.50;10497662;28;20044;-73
2021/12/10 15:05:54;;;;;;;34.35;8.45;;;;;;;8.51;83.81;101302.28;10497746;28;20051;-73
2021/12/10 15:10:58;;;;;;;45.53;9.65;;;;;;;8.20;83.86;101281.88;10492796;28;20462;-73
2021/12/10 15:16:15;;;;;;;27.77;8.05;;;;;;;7.71;83.69;101209.25;10474797;28;20566;-72
2021/12/10 15:21:38;;;;;;;26.15;8.30;;;;;;;8.36;84.69;101328.22;10482042;28;20056;-72
2021/12/10 15:26:57;;;;;;;25.65;7.88;;;;;;;7.52;84.59;101209.09;10491805;28;20067;-73
2021/12/10 15:32:04;;;;;;;49.38;8.55;;;;;;;7.92;84.43;101327.47;10491887;28;20540;-73
2021/12/10 15:37:07;;;;;;;22.42;6.88;;;;;;;7.78;84.80;101328.63;10492858;28;20035;-72
2021/12/10 15:42:09;;;;;;;14.93;6.32;;;;;;;7.77;84.95;101353.38;10487324;28;20045;-76
2021/12/10 15:47:13;;;;;;;33.33;6.55;;;;;;;6.56;85.38;101143.84;10485269;28;20173;-73
2021/12/10 15:52:18;;;;;;;48.22;7.38;;;;;;;6.82;85.66;101208.59;10488814;28;20547;-74
2021/12/10 15:57:32;;;;;;;12.80;5.32;;;;;;;7.14;85.50;101273.84;10484895;28;20040;-74
2021/12/10 16:02:33;;;;;;;9.23;4.53;;;;;;;7.44;85.68;101349.00;10489416;28;20036;-74
2021/12/10 16:07:42;;;;;;;13.13;4.70;;;;;;;6.45;86.06;101197.47;10486726;28;21083;-74
2021/12/10 16:12:51;;;;;;;12.80;4.75;;;;;;;7.10;86.19;101338.47;10489048;28;20045;-74
2021/12/10 16:17:52;;;;;;;24.80;5.68;;;;;;;6.86;86.52;101304.28;10486694;28;20143;-74
2021/12/10 16:22:54;;;;;;;62.50;29.60;;;;;;;5.74;86.69;101154.53;10486709;28;20082;-74
2021/12/10 16:27:57;;;;;;;24.23;11.80;;;;;;;6.68;87.65;101329.47;10485456;28;20491;-74
2021/12/10 16:33:00;;;;;;;27.10;11.33;;;;;;;6.57;87.66;101346.97;10486729;28;20044;-74
2021/12/10 16:38:06;;;;;;;34.15;18.30;;;;;;;6.61;87.89;101347.56;10482561;28;20045;-75
2021/12/10 16:43:11;;;;;;;53.15;21.42;;;;;;;6.52;87.87;101343.00;10464776;28;20056;-73
2021/12/10 16:48:34;;;;;;;44.58;18.65;;;;;;;6.32;86.46;101353.28;10487194;28;20171;-75
2021/12/10 16:53:43;;;;;;;29.05;13.52;;;;;;;5.62;87.41;101289.91;10482670;28;20435;-72
2021/12/10 16:58:45;;;;;;;32.45;13.98;;;;;;;5.01;87.39;101230.19;10488746;28;20052;-75
2021/12/10 17:03:47;;;;;;;43.17;16.58;;;;;;;5.77;87.79;101365.25;10486107;28;20067;-76
2021/12/10 17:08:50;;;;;;;44.35;17.98;;;;;;;5.58;88.15;101318.28;10491459;28;20477;-75
2021/12/10 17:13:52;;;;;;;40.08;16.85;;;;;;;5.58;88.37;101359.63;10470090;28;20056;-72
2021/12/10 17:18:57;;;;;;;29.27;15.63;;;;;;;5.22;88.38;101330.53;10452924;28;20485;-73
2021/12/10 17:23:59;;;;;;;;;;;;;;;5.34;88.16;101352.53;10460974;28;20045;-73
2021/12/10 17:29:11;;;;;;;44.28;17.02;;;;;;;4.95;89.16;101314.06;10475325;28;19920;-72
2021/12/10 17:34:19;;;;;;;35.05;17.77;;;;;;;3.98;88.28;101170.81;10465638;28;20041;-74
2021/12/10 17:39:33;;;;;;;37.53;19.17;;;;;;;4.90;89.13;101360.91;10472952;28;20545;-73
2021/12/10 17:44:37;;;;;;;44.97;17.45;;;;;;;3.91;89.18;101201.06;10475125;28;20067;-74
2021/12/10 17:49:44;;;;;;;41.50;19.25;;;;;;;4.60;89.08;101309.44;10492140;28;20048;-73
2021/12/10 17:54:49;;;;;;;42.50;19.52;;;;;;;3.78;88.63;101181.81;10494763;28;20495;-75
2021/12/10 17:59:50;;;;;;;32.70;14.48;;;;;;;4.01;88.47;101251.22;10493080;28;20131;-76
2021/12/10 18:04:53;;;;;;;24.00;10.50;;;;;;;4.47;88.94;101351.56;10477649;28;20068;-71
2021/12/10 18:09:56;;;;;;;19.83;10.57;;;;;;;4.37;89.48;101323.31;10478698;28;20039;-70
2021/12/10 18:15:10;;;;;;;24.45;8.77;;;;;;;4.35;88.64;101336.59;10495036;28;20514;-73
2021/12/10 18:20:22;;;;;;;15.93;8.20;;;;;;;2.59;88.69;101052.25;10492021;28;20036;-73
2021/12/10 18:25:27;;;;;;;17.02;7.32;;;;;;;4.03;89.18;101309.81;10494559;28;20127;-73
2021/12/10 18:30:31;;;;;;;23.25;8.15;;;;;;;3.72;88.67;101275.06;10491280;28;20137;-73
2021/12/10 18:35:33;;;;;;;16.13;7.63;;;;;;;3.77;88.50;101288.75;10492890;28;20547;-74
2021/12/10 18:40:54;;;;;;;24.40;8.20;;;;;;;2.26;88.60;101042.97;10496661;28;20037;-74
2021/12/10 18:46:02;;;;;;;20.80;7.30;;;;;;;3.40;88.77;101254.34;10487143;28;20048;-74
2021/12/10 18:51:35;;;;;;;12.70;7.22;;;;;;;3.73;89.30;101315.31;10476310;28;20447;-73
2021/12/10 18:56:42;;;;;;;18.10;7.95;;;;;;;1.47;89.78;100956.28;10486725;28;20413;-73
2021/12/10 19:01:51;;;;;;;22.40;7.60;;;;;;;3.06;87.77;101263.53;10494555;28;20040;-73
2021/12/10 19:06:59;;;;;;;30.77;7.53;;;;;;;3.16;89.15;101263.81;10496082;28;20085;-73
2021/12/10 19:12:09;;;;;;;21.20;6.57;;;;;;;3.15;87.50;101293.63;10494693;28;20029;-73
2021/12/10 19:17:15;;;;;;;25.92;7.88;;;;;;;2.72;88.90;101241.19;10494727;28;20040;-73
2021/12/10 19:22:21;;;;;;;422.10;19.75;;;;;;;3.10;89.38;101287.81;10494893;28;20032;-73
2021/12/10 19:27:28;;;;;;;31.40;10.93;;;;;;;3.32;90.14;101311.78;10492464;28;20040;-74
2021/12/10 19:32:37;;;;;;;263.60;17.38;;;;;;;3.05;90.10;101269.75;10496583;28;20117;-73
2021/12/10 19:37:46;;;;;;;42.60;15.63;;;;;;;3.19;91.39;101288.06;10479321;28;20044;-73
2021/12/10 19:43:28;;;;;;;101.82;21.52;;;;;;;3.45;91.79;101306.59;10496913;28;20067;-73
2021/12/10 19:48:33;;;;;;;145.98;24.67;;;;;;;3.57;90.33;101320.72;10443158;28;20392;-73
2021/12/10 19:54:03;;;;;;;156.00;24.80;;;;;;;3.70;91.48;101300.56;10496472;28;20044;-73
2021/12/10 19:59:13;;;;;;;387.73;28.10;;;;;;;3.56;91.32;101263.84;10493976;28;20097;-73
2021/12/10 20:04:14;;;;;;;452.83;28.75;;;;;;;3.79;91.38;101312.28;10477769;28;20037;-73
2021/12/10 20:09:33;;;;;;;219.93;24.50;;;;;;;2.95;90.56;101174.97;10496114;28;20587;-73
2021/12/10 20:14:52;;;;;;;525.33;30.60;;;;;;;3.67;92.54;101303.41;10496403;28;20051;-72
2021/12/10 20:20:09;;;;;;;273.30;24.35;;;;;;;3.60;91.76;101276.69;10496506;28;20034;-72
2021/12/10 20:25:17;;;;;;;116.95;22.88;;;;;;;2.96;92.55;101149.56;10495199;28;20050;-72
2021/12/10 20:30:23;;;;;;;52.78;21.40;;;;;;;4.00;93.32;101297.72;10492073;28;20040;-72
2021/12/10 20:35:33;;;;;;;60.80;21.13;;;;;;;4.25;93.56;101335.53;10490850;28;20044;-72
2021/12/10 20:40:48;;;;;;;71.93;21.45;;;;;;;3.95;94.21;101260.41;10496378;28;20036;-72
2021/12/10 20:45:59;;;;;;;76.93;19.98;;;;;;;3.54;93.87;101179.06;10503878;28;20036;-73
2021/12/10 20:51:15;;;;;;;84.95;25.05;;;;;;;3.47;92.83;101170.75;10504278;28;20068;-73
2021/12/10 20:56:22;;;;;;;77.68;27.50;;;;;;;4.43;94.40;101323.78;10503202;28;20045;-75
2021/12/10 21:01:39;;;;;;;68.65;26.15;;;;;;;4.24;94.29;101275.97;10485369;28;20041;-72
2021/12/10 21:06:48;;;;;;;52.03;27.42;;;;;;;4.57;95.27;101321.00;10486011;28;20072;-72
2021/12/10 21:11:55;;;;;;;45.70;20.42;;;;;;;4.69;95.40;101315.88;10503501;28;20036;-72
2021/12/10 21:17:08;;;;;;;31.40;16.17;;;;;;;3.34;96.72;101083.19;10501916;28;20496;-73
2021/12/10 21:22:39;;;;;;;26.23;14.47;;;;;;;4.68;96.18;101290.50;10501816;28;20119;-72
2021/12/10 21:27:45;;;;;;;30.65;14.27;;;;;;;4.90;95.47;101327.53;10499562;28;20451;-72
2021/12/10 21:32:50;;;;;;;28.25;13.80;;;;;;;3.99;94.64;101161.97;10501831;28;20064;-72
2021/12/10 21:37:57;;;;;;;44.83;20.23;;;;;;;4.94;95.70;101315.00;10501672;28;20045;-72
2021/12/10 21:43:02;;;;;;;24.02;13.25;;;;;;;3.43;95.85;101058.94;10484468;28;20583;-72
2021/12/10 21:48:04;;;;;;;23.42;12.52;;;;;;;4.93;95.83;101290.44;10501551;28;20060;-72
2021/12/10 21:53:09;;;;;;;23.90;12.25;;;;;;;4.96;95.80;101287.59;10500858;28;20095;-72
2021/12/10 21:58:15;;;;;;;24.15;13.30;;;;;;;5.26;96.35;101302.16;10501537;28;20054;-72
2021/12/10 22:03:23;;;;;;;20.70;11.88;;;;;;;4.54;96.15;101171.25;10499987;28;20082;-72
2021/12/10 22:08:44;;;;;;;18.30;11.05;;;;;;;5.52;96.50;101312.63;10500056;28;20538;-72
2021/12/10 22:14:16;;;;;;;22.05;12.20;;;;;;;5.56;95.90;101303.53;10499836;28;20090;-72
2021/12/10 22:19:23;;;;;;;22.83;12.57;;;;;;;4.93;94.88;101200.94;10500579;28;20041;-72
2021/12/10 22:24:35;;;;;;;27.52;13.70;;;;;;;5.40;96.39;101274.84;10499418;28;20040;-72
2021/12/10 22:29:41;;;;;;;26.40;12.80;;;;;;;5.83;96.84;101306.78;10499178;28;20089;-72
2021/12/10 22:34:53;;;;;;;26.50;12.68;;;;;;;4.83;95.76;101120.09;10499488;28;20131;-72
2021/12/10 22:40:03;;;;;;;23.83;12.93;;;;;;;5.98;95.71;101306.63;10499858;28;20044;-72
2021/12/10 22:45:11;;;;;;;22.25;12.32;;;;;;;5.74;96.03;101257.38;10499260;28;20037;-72
2021/12/10 22:50:21;;;;;;;20.83;10.88;;;;;;;5.31;95.73;101199.94;10499089;28;20102;-72
2021/12/10 22:55:31;;;;;;;20.05;10.20;;;;;;;5.79;96.06;101270.22;10471611;28;20048;-72
2021/12/10 23:00:38;;;;;;;18.40;10.45;;;;;;;6.04;96.52;101325.50;10498429;28;20040;-72
2021/12/10 23:05:47;;;;;;;21.02;10.10;;;;;;;5.85;96.54;101296.13;10455921;28;20049;-72
2021/12/10 23:10:49;;;;;;;17.63;9.85;;;;;;;5.81;95.62;101273.59;10462996;28;20036;-72
2021/12/10 23:15:58;;;;;;;21.20;9.95;;;;;;;4.97;95.81;101147.13;10480027;28;20101;-72
2021/12/10 23:21:14;;;;;;;22.70;10.38;;;;;;;5.12;95.70;101173.28;10497681;28;20043;-72
2021/12/10 23:26:15;;;;;;;24.75;10.52;;;;;;;5.14;95.62;101187.16;10496833;28;20047;-72